Barter Island LRRS Airport Barter Island Lrrs US
ICAO: PABA
IATA:
Category: Medium
Scheduled Services:

Elevation: 2 ft
TransAlt. 18000 ft.

Airport Communications:
AWOS 3:30.8
ANCHORAGE CNTR:120.6
CTAF:126.2
DEADHORSE RDO:122
RDO:126.2

PABA Zoom In..

If you have problems with the map follow the link
https://www.worldairports.se/pages/airport.php?
ICAO=PABA

Runways:

(A) RW 07 length 4818 ft width 100 ft
---- / hdg 66

(B) RW 25 length 4818 ft width 100 ft
---- / hdg 246

Location; PABA
Day. 05 / Time. 21.18 Zulu
* Altimeter: 30.15
* Temperature: -19° c. 2.2°f.
* Wind from: 270° Speed 18 kn.
Dewpoint: -21° c.
Visibility: 10 Statute Miles.
Clouds: Scattered 1400 ft.
Clouds: Broken 3900 ft.

PABA 052118Z AUTO 27018KT 10SM SCT014 BKN039 M19/M21 A3015 RMK AO2 FZRANO TSNO


Wind From 270°
Speed 18 kn.

 
 
jpsmedia worldairports.se 2019   terms of use